createdAt,value
2018-07-06T00:00:19.428Z,28.80
2018-07-06T00:01:50.906Z,30.30
2018-07-06T00:03:22.486Z,28.90
2018-07-06T00:04:54.042Z,29.50
2018-07-06T00:06:25.614Z,32.20
2018-07-06T00:07:57.191Z,31.50
2018-07-06T00:09:28.759Z,32.20
2018-07-06T00:11:00.398Z,31.70
2018-07-06T00:12:32.102Z,30.90
2018-07-06T00:14:03.477Z,29.90
2018-07-06T00:15:35.049Z,32.20
2018-07-06T00:17:06.621Z,34.40
2018-07-06T00:18:38.393Z,33.00
2018-07-06T00:20:09.766Z,31.50
2018-07-06T00:21:41.338Z,31.90
2018-07-06T00:23:12.910Z,32.60
2018-07-06T00:24:44.483Z,31.80
2018-07-06T00:26:16.055Z,33.10
2018-07-06T00:27:47.626Z,32.60
2018-07-06T00:29:19.199Z,34.00
2018-07-06T00:30:50.771Z,35.40
2018-07-06T00:32:22.343Z,34.10
2018-07-06T00:33:53.916Z,34.50
2018-07-06T00:35:25.488Z,33.20
2018-07-06T00:36:57.161Z,35.60
2018-07-06T00:38:28.633Z,38.20
2018-07-06T00:40:00.205Z,33.50
2018-07-06T00:41:31.777Z,33.90
2018-07-06T00:43:03.349Z,38.60
2018-07-06T00:44:34.921Z,39.00
2018-07-06T00:46:06.494Z,42.20
2018-07-06T00:47:38.065Z,42.20
2018-07-06T00:49:09.638Z,43.00
2018-07-06T00:50:41.210Z,45.00
2018-07-06T00:52:12.782Z,37.50
2018-07-06T00:53:44.355Z,37.90
2018-07-06T00:55:16.026Z,40.90
2018-07-06T00:56:47.502Z,39.00
2018-07-06T00:58:19.071Z,42.80
2018-07-06T00:59:50.643Z,40.60
2018-07-06T01:01:22.215Z,43.30
2018-07-06T01:02:53.787Z,41.00
2018-07-06T01:04:25.359Z,41.50
2018-07-06T01:05:56.931Z,39.60
2018-07-06T01:07:28.503Z,41.60
2018-07-06T01:09:00.075Z,41.50
2018-07-06T01:10:31.647Z,41.70
2018-07-06T01:12:03.219Z,43.90
2018-07-06T01:13:35.141Z,40.70
2018-07-06T01:15:06.363Z,45.90
2018-07-06T01:16:37.934Z,45.40
2018-07-06T01:18:09.507Z,42.90
2018-07-06T01:19:41.081Z,44.60
2018-07-06T01:21:12.652Z,44.70
2018-07-06T01:22:44.222Z,46.10
2018-07-06T01:24:15.793Z,47.30
2018-07-06T01:25:47.368Z,49.30
2018-07-06T01:27:18.937Z,44.70
2018-07-06T01:28:50.509Z,45.20
2018-07-06T01:30:22.081Z,46.40
2018-07-06T01:31:53.753Z,47.50
2018-07-06T01:33:25.227Z,46.00
2018-07-06T01:34:56.801Z,47.50
2018-07-06T01:36:28.367Z,47.30
2018-07-06T01:37:59.941Z,48.80
2018-07-06T01:39:31.510Z,51.00
2018-07-06T01:41:03.082Z,46.90
2018-07-06T01:42:34.654Z,45.90
2018-07-06T01:44:06.225Z,47.30
2018-07-06T01:45:37.796Z,48.00
2018-07-06T01:47:09.368Z,48.50
2018-07-06T01:48:40.941Z,50.50
2018-07-06T01:50:12.831Z,50.40
2018-07-06T01:51:44.083Z,46.60
2018-07-06T01:53:15.654Z,46.90
2018-07-06T01:54:47.226Z,54.40
2018-07-06T01:56:18.797Z,54.70
2018-07-06T01:57:50.369Z,55.30
2018-07-06T01:59:21.941Z,52.20
2018-07-06T02:00:53.511Z,53.50
2018-07-06T02:02:25.084Z,49.90
2018-07-06T02:03:56.655Z,52.70
2018-07-06T02:05:28.226Z,52.10
2018-07-06T02:06:59.797Z,57.60
2018-07-06T02:08:31.468Z,61.90
2018-07-06T02:10:02.940Z,58.40
2018-07-06T02:11:34.511Z,55.00
2018-07-06T02:13:06.082Z,51.30
2018-07-06T02:14:37.760Z,48.30
2018-07-06T02:16:09.225Z,53.90
2018-07-06T02:17:40.796Z,55.80
2018-07-06T02:19:12.368Z,58.90
2018-07-06T02:20:44.039Z,61.50
2018-07-06T02:22:15.511Z,60.90
2018-07-06T02:23:47.081Z,55.30
2018-07-06T02:25:18.653Z,59.10
2018-07-06T02:26:50.524Z,56.10
2018-07-06T02:28:21.794Z,55.70
2018-07-06T02:29:53.366Z,58.50
2018-07-06T02:31:24.947Z,58.60
2018-07-06T02:32:56.510Z,61.30
2018-07-06T02:34:28.082Z,64.20
2018-07-06T02:35:59.651Z,60.30
2018-07-06T02:37:31.223Z,63.00
2018-07-06T02:39:02.801Z,67.50
2018-07-06T02:40:34.365Z,65.30
2018-07-06T02:42:05.936Z,63.00
2018-07-06T02:43:37.506Z,66.20
2018-07-06T02:45:09.431Z,64.20
2018-07-06T02:46:40.656Z,63.60
2018-07-06T02:48:12.220Z,65.70
2018-07-06T02:49:43.791Z,66.30
2018-07-06T02:51:15.463Z,67.10
2018-07-06T02:52:46.932Z,65.10
2018-07-06T02:54:18.507Z,64.10
2018-07-06T02:55:50.075Z,71.10
2018-07-06T02:57:21.796Z,74.80
2018-07-06T02:58:53.216Z,73.30
2018-07-06T03:00:24.791Z,62.70
2018-07-06T03:01:56.359Z,58.40
2018-07-06T03:03:28.033Z,61.40
2018-07-06T03:04:59.511Z,63.50
2018-07-06T03:06:31.071Z,69.90
2018-07-06T03:08:02.643Z,67.50
2018-07-06T03:09:34.214Z,66.50
2018-07-06T03:11:05.789Z,63.40
2018-07-06T03:12:37.354Z,64.00
2018-07-06T03:14:08.925Z,65.50
2018-07-06T03:15:40.747Z,74.50
2018-07-06T03:17:12.068Z,70.90
2018-07-06T03:18:43.638Z,72.90
2018-07-06T03:20:15.209Z,75.60
2018-07-06T03:21:47.030Z,73.00
2018-07-06T03:23:18.350Z,73.50
2018-07-06T03:24:49.923Z,66.60
2018-07-06T03:26:21.492Z,69.00
2018-07-06T03:27:53.225Z,70.80
2018-07-06T03:29:24.633Z,76.00
2018-07-06T03:30:56.205Z,73.00
2018-07-06T03:32:27.775Z,64.10
2018-07-06T03:33:59.345Z,63.70
2018-07-06T03:35:30.916Z,60.60
2018-07-06T03:37:02.487Z,57.20
2018-07-06T03:38:34.058Z,60.30
2018-07-06T03:40:05.728Z,54.90
2018-07-06T03:41:37.199Z,59.00
2018-07-06T03:43:08.770Z,59.10
2018-07-06T03:44:40.342Z,66.70
2018-07-06T03:46:11.912Z,67.10
2018-07-06T03:47:43.483Z,64.30
2018-07-06T03:49:15.054Z,63.00
2018-07-06T03:50:46.625Z,61.10
2018-07-06T03:52:18.298Z,64.50
2018-07-06T03:53:49.768Z,63.50
2018-07-06T03:56:52.908Z,74.30
2018-07-06T03:58:24.780Z,73.10
2018-07-06T03:59:56.052Z,71.70
2018-07-06T04:01:27.625Z,57.10
2018-07-06T04:02:59.193Z,59.70
2018-07-06T04:04:30.763Z,61.50
2018-07-06T04:06:02.335Z,66.30
2018-07-06T04:07:33.906Z,72.10
2018-07-06T04:09:05.479Z,75.40
2018-07-06T04:10:37.048Z,78.80
2018-07-06T04:12:08.618Z,76.90
2018-07-06T04:13:40.189Z,69.00
2018-07-06T04:15:11.762Z,70.40
2018-07-06T04:16:43.700Z,68.80
2018-07-06T04:18:14.901Z,68.00
2018-07-06T04:19:46.472Z,67.00
2018-07-06T04:21:18.044Z,62.10
2018-07-06T04:22:49.763Z,54.40
2018-07-06T04:24:21.184Z,61.60
2018-07-06T04:25:52.769Z,71.70
2018-07-06T04:27:24.329Z,64.60
2018-07-06T04:28:55.900Z,64.60
2018-07-06T04:30:27.467Z,61.30
2018-07-06T04:31:59.038Z,69.10
2018-07-06T04:33:30.625Z,79.90
2018-07-06T04:35:02.280Z,92.10
2018-07-06T04:36:33.752Z,93.90
2018-07-06T04:38:05.321Z,68.80
2018-07-06T04:39:36.892Z,70.50
2018-07-06T04:41:08.464Z,55.70
2018-07-06T04:42:40.035Z,62.00
2018-07-06T04:44:11.621Z,76.20
2018-07-06T04:45:43.176Z,93.50
2018-07-06T04:47:14.997Z,109.10
2018-07-06T04:48:46.317Z,99.70
2018-07-06T04:50:17.892Z,95.00
2018-07-06T04:51:49.459Z,85.30
2018-07-06T04:53:21.130Z,60.20
2018-07-06T04:54:52.601Z,81.40
2018-07-06T04:56:24.172Z,80.00
2018-07-06T04:57:55.743Z,73.80
2018-07-06T04:59:27.313Z,72.60
2018-07-06T05:00:58.884Z,66.20
2018-07-06T05:02:30.459Z,69.90
2018-07-06T05:04:02.029Z,68.60
2018-07-06T05:05:33.596Z,67.70
2018-07-06T05:07:05.167Z,67.80
2018-07-06T05:08:36.838Z,69.40
2018-07-06T05:10:08.308Z,70.50
2018-07-06T05:11:39.980Z,69.10
2018-07-06T05:13:11.449Z,70.40
2018-07-06T05:14:43.020Z,66.20
2018-07-06T05:16:14.592Z,69.30
2018-07-06T05:17:46.416Z,70.40
2018-07-06T05:19:17.732Z,68.80
2018-07-06T05:20:49.303Z,70.00
2018-07-06T05:22:20.874Z,72.60
2018-07-06T05:23:52.545Z,73.10
2018-07-06T05:25:24.015Z,69.30
2018-07-06T05:26:55.585Z,71.40
2018-07-06T05:28:27.157Z,73.00
2018-07-06T05:29:58.977Z,72.60
2018-07-06T05:31:30.298Z,71.90
2018-07-06T05:33:01.869Z,71.00
2018-07-06T05:34:33.440Z,70.90
2018-07-06T05:36:05.011Z,74.10
2018-07-06T05:37:36.581Z,73.70
2018-07-06T05:39:08.153Z,75.50
2018-07-06T05:40:39.723Z,73.80
2018-07-06T05:42:11.295Z,73.40
2018-07-06T05:43:42.865Z,76.60
2018-07-06T05:45:14.437Z,73.90
2018-07-06T05:46:46.007Z,76.40
2018-07-06T05:48:17.929Z,76.20
2018-07-06T05:49:49.149Z,80.80
2018-07-06T05:51:20.720Z,77.50
2018-07-06T05:52:52.291Z,79.40
2018-07-06T05:54:24.014Z,76.40
2018-07-06T05:55:55.432Z,81.20
2018-07-06T05:57:27.004Z,84.40
2018-07-06T05:58:58.574Z,79.20
2018-07-06T06:00:30.147Z,85.30
2018-07-06T06:02:01.717Z,80.40
2018-07-06T06:03:33.288Z,84.20
2018-07-06T06:05:04.859Z,83.60
2018-07-06T06:06:36.530Z,82.70
2018-07-06T06:08:08.000Z,76.20
2018-07-06T06:09:39.574Z,71.60
2018-07-06T06:11:11.143Z,67.40
2018-07-06T06:12:42.713Z,71.90
2018-07-06T06:14:14.285Z,66.80
2018-07-06T06:15:45.856Z,70.20
2018-07-06T06:17:17.426Z,77.50
2018-07-06T06:18:49.200Z,80.20
2018-07-06T06:20:20.568Z,80.20
2018-07-06T06:21:52.139Z,83.80
2018-07-06T06:23:23.710Z,93.30
2018-07-06T06:24:55.635Z,85.20
2018-07-06T06:26:26.852Z,79.10
2018-07-06T06:27:58.422Z,78.80
2018-07-06T06:29:30.005Z,82.70
2018-07-06T06:31:01.565Z,128.60
2018-07-06T06:32:33.135Z,112.40
2018-07-06T06:34:04.707Z,140.00
2018-07-06T06:35:36.277Z,121.20
2018-07-06T06:37:07.847Z,114.10
2018-07-06T06:38:39.417Z,140.60
2018-07-06T06:40:10.990Z,151.00
2018-07-06T06:41:42.561Z,179.30
2018-07-06T06:43:14.631Z,192.20
2018-07-06T06:44:45.792Z,190.80
2018-07-06T06:46:17.271Z,176.70
2018-07-06T06:47:48.842Z,193.50
2018-07-06T06:49:20.667Z,221.30
2018-07-06T06:50:51.984Z,154.70
2018-07-06T06:52:23.557Z,189.50
2018-07-06T06:53:55.125Z,122.60
2018-07-06T06:55:26.849Z,117.20
2018-07-06T06:56:58.267Z,104.20
2018-07-06T06:58:29.837Z,100.20
2018-07-06T07:00:01.408Z,235.00
2018-07-06T07:01:33.129Z,213.90
2018-07-06T07:03:04.551Z,236.00
2018-07-06T07:04:36.120Z,220.70
2018-07-06T07:06:07.695Z,216.90
2018-07-06T07:07:39.264Z,187.40
2018-07-06T07:09:10.831Z,111.20
2018-07-06T07:10:42.403Z,84.40
2018-07-06T07:12:13.973Z,75.20
2018-07-06T07:13:45.706Z,92.00
2018-07-06T07:15:17.117Z,81.10
2018-07-06T07:16:48.685Z,116.60
2018-07-06T07:18:20.256Z,173.10
2018-07-06T07:19:52.178Z,151.30
2018-07-06T07:21:23.398Z,80.40
2018-07-06T07:22:54.971Z,69.40
2018-07-06T07:24:26.541Z,51.80
2018-07-06T07:25:58.214Z,57.40
2018-07-06T07:27:29.682Z,110.60
2018-07-06T07:29:01.252Z,111.70
2018-07-06T07:30:32.823Z,108.20
2018-07-06T07:32:04.556Z,123.90
2018-07-06T07:33:35.965Z,142.60
2018-07-06T07:35:07.536Z,122.20
2018-07-06T07:36:39.106Z,82.50
2018-07-06T07:38:10.777Z,74.00
2018-07-06T07:39:42.248Z,57.00
2018-07-06T07:41:13.819Z,50.00
2018-07-06T07:42:45.389Z,47.80
2018-07-06T07:44:17.110Z,44.90
2018-07-06T07:45:48.531Z,45.80
2018-07-06T07:47:20.101Z,87.70
2018-07-06T07:48:51.672Z,70.60
2018-07-06T07:50:23.493Z,66.50
2018-07-06T07:51:54.814Z,79.60
2018-07-06T07:53:26.388Z,64.90
2018-07-06T07:54:57.965Z,54.40
2018-07-06T07:56:29.726Z,46.40
2018-07-06T07:58:01.154Z,44.90
2018-07-06T07:59:32.724Z,47.70
2018-07-06T08:01:04.397Z,44.90
2018-07-06T08:02:35.960Z,54.50
2018-07-06T08:04:07.381Z,47.90
2018-07-06T08:05:38.951Z,44.90
2018-07-06T08:07:10.522Z,45.00
2018-07-06T08:08:42.093Z,42.60
2018-07-06T08:10:13.665Z,45.20
2018-07-06T08:11:45.272Z,44.20
2018-07-06T08:13:16.806Z,44.80
2018-07-06T08:14:48.678Z,45.70
2018-07-06T08:16:19.948Z,44.90
2018-07-06T08:17:51.519Z,45.10
2018-07-06T08:19:23.094Z,53.40
2018-07-06T08:20:54.913Z,59.30
2018-07-06T08:22:26.232Z,47.30
2018-07-06T08:23:57.804Z,50.20
2018-07-06T08:25:29.379Z,49.10
2018-07-06T08:27:01.047Z,47.40
2018-07-06T08:28:32.517Z,47.80
2018-07-06T08:30:04.088Z,41.60
2018-07-06T08:31:35.717Z,46.20
2018-07-06T08:33:07.530Z,51.80
2018-07-06T08:34:38.802Z,47.10
2018-07-06T08:36:10.371Z,53.60
2018-07-06T08:37:41.947Z,61.50
2018-07-06T08:39:13.613Z,63.60
2018-07-06T08:40:45.084Z,70.60
2018-07-06T08:42:16.654Z,83.00
2018-07-06T08:43:48.226Z,83.90
2018-07-06T08:45:19.899Z,71.10
2018-07-06T08:46:51.366Z,77.10
2018-07-06T08:48:22.936Z,65.60
2018-07-06T08:49:54.507Z,73.60
2018-07-06T08:51:26.178Z,83.90
2018-07-06T08:52:57.648Z,85.60
2018-07-06T08:54:29.218Z,103.30
2018-07-06T08:56:00.788Z,101.30
2018-07-06T08:57:32.525Z,105.90
2018-07-06T08:59:03.927Z,104.50
2018-07-06T09:00:35.498Z,110.20
2018-07-06T09:02:07.072Z,106.40
2018-07-06T09:03:38.637Z,100.30
2018-07-06T09:05:10.207Z,97.30
2018-07-06T09:06:41.777Z,107.80
2018-07-06T09:08:13.346Z,99.50
2018-07-06T09:09:45.025Z,101.80
2018-07-06T09:11:16.486Z,106.80
2018-07-06T09:12:48.055Z,102.40
2018-07-06T09:14:19.624Z,95.10
2018-07-06T09:15:51.295Z,102.90
2018-07-06T09:17:22.765Z,98.80
2018-07-06T09:18:54.334Z,90.50
2018-07-06T09:20:25.904Z,104.90
2018-07-06T09:21:57.724Z,107.20
2018-07-06T09:23:29.043Z,88.60
2018-07-06T09:25:00.612Z,75.50
2018-07-06T09:26:32.182Z,76.90
2018-07-06T09:28:04.051Z,76.80
2018-07-06T09:29:35.320Z,77.50
2018-07-06T09:31:06.890Z,76.90
2018-07-06T09:32:38.460Z,80.90
2018-07-06T09:34:10.030Z,82.40
2018-07-06T09:35:41.598Z,90.40
2018-07-06T09:37:13.169Z,71.70
2018-07-06T09:38:44.740Z,81.60
2018-07-06T09:40:16.308Z,78.80
2018-07-06T09:41:47.879Z,76.60
2018-07-06T09:43:19.464Z,96.20
2018-07-06T09:44:51.017Z,73.90
2018-07-06T09:46:22.788Z,62.90
2018-07-06T09:47:54.157Z,68.60
2018-07-06T09:49:25.731Z,73.40
2018-07-06T09:50:57.307Z,69.90
2018-07-06T09:52:29.121Z,80.40
2018-07-06T09:54:00.436Z,78.40
2018-07-06T09:55:32.006Z,72.90
2018-07-06T09:57:03.581Z,59.70
2018-07-06T09:58:35.145Z,66.20
2018-07-06T10:00:06.717Z,68.90
2018-07-06T10:01:38.286Z,75.30
2018-07-06T10:03:09.856Z,68.70
2018-07-06T10:04:41.528Z,67.70
2018-07-06T10:06:12.997Z,66.80
2018-07-06T10:07:44.569Z,58.60
2018-07-06T10:09:16.139Z,67.90
2018-07-06T10:10:47.712Z,54.30
2018-07-06T10:12:19.279Z,61.40
2018-07-06T10:13:50.849Z,55.90
2018-07-06T10:15:22.420Z,57.90
2018-07-06T10:16:54.294Z,62.80
2018-07-06T10:18:25.562Z,64.80
2018-07-06T10:19:57.133Z,61.40
2018-07-06T10:21:28.703Z,65.90
2018-07-06T10:23:00.374Z,57.60
2018-07-06T10:24:31.844Z,63.40
2018-07-06T10:26:03.417Z,70.90
2018-07-06T10:27:34.987Z,58.00
2018-07-06T10:29:06.558Z,57.00
2018-07-06T10:30:38.140Z,58.80
2018-07-06T10:32:09.701Z,70.80
2018-07-06T10:33:41.295Z,65.10
2018-07-06T10:35:12.843Z,69.70
2018-07-06T10:36:44.947Z,57.30
2018-07-06T10:38:15.988Z,67.50
2018-07-06T10:39:47.692Z,67.90
2018-07-06T10:41:19.230Z,66.80
2018-07-06T10:42:50.702Z,66.60
2018-07-06T10:44:22.310Z,65.90
2018-07-06T10:45:53.850Z,66.80
2018-07-06T10:47:25.424Z,61.40
2018-07-06T10:48:56.991Z,65.00
2018-07-06T10:50:28.766Z,63.80
2018-07-06T10:52:00.138Z,57.60
2018-07-06T10:53:31.833Z,47.70
2018-07-06T10:55:03.283Z,59.30
2018-07-06T10:56:35.462Z,57.60
2018-07-06T10:58:06.428Z,62.60
2018-07-06T10:59:38.308Z,59.10
2018-07-06T11:01:09.577Z,57.80
2018-07-06T11:02:41.149Z,52.50
2018-07-06T11:04:12.723Z,50.80
2018-07-06T11:05:44.296Z,50.60
2018-07-06T11:07:15.871Z,49.60
2018-07-06T11:08:47.444Z,50.70
2018-07-06T11:10:19.020Z,51.60
2018-07-06T11:13:22.369Z,53.40
2018-07-06T11:14:53.741Z,51.20
2018-07-06T11:16:25.315Z,52.10
2018-07-06T11:17:56.892Z,51.70
2018-07-06T11:19:29.197Z,48.50
2018-07-06T11:21:00.044Z,49.10
2018-07-06T11:22:31.615Z,47.50
2018-07-06T11:24:03.364Z,46.60
2018-07-06T11:25:34.914Z,45.90
2018-07-06T11:27:06.341Z,46.10
2018-07-06T11:28:38.115Z,45.60
2018-07-06T11:30:09.487Z,48.20
2018-07-06T11:31:41.063Z,47.40
2018-07-06T11:33:12.638Z,46.70
2018-07-06T11:34:44.211Z,47.50
2018-07-06T11:36:15.787Z,47.50
2018-07-06T11:37:47.525Z,47.50
2018-07-06T11:39:19.240Z,43.20
2018-07-06T11:40:50.512Z,41.20
2018-07-06T11:42:22.089Z,40.90
2018-07-06T11:43:53.764Z,42.10
2018-07-06T11:46:56.815Z,40.50
2018-07-06T11:48:28.389Z,38.20
2018-07-06T11:49:59.965Z,36.60
2018-07-06T11:51:31.543Z,38.90
2018-07-06T11:53:03.125Z,38.10
2018-07-06T11:54:34.694Z,36.70
2018-07-06T11:56:06.481Z,40.00
2018-07-06T11:57:37.848Z,40.20
2018-07-06T11:59:09.432Z,39.60
2018-07-06T12:00:41.002Z,39.80
2018-07-06T12:02:12.579Z,39.90
2018-07-06T12:03:44.169Z,38.60
2018-07-06T12:05:16.038Z,41.40
2018-07-06T12:06:47.927Z,40.60
2018-07-06T12:08:19.826Z,40.80
2018-07-06T12:09:50.466Z,39.10
2018-07-06T12:11:22.051Z,40.50
2018-07-06T12:12:53.925Z,41.60
2018-07-06T12:15:56.877Z,37.70
2018-07-06T12:17:28.355Z,39.60
2018-07-06T12:18:59.935Z,37.70
2018-07-06T12:20:32.425Z,38.10
2018-07-06T12:22:03.093Z,40.10
2018-07-06T12:23:34.669Z,42.80
2018-07-06T12:25:06.248Z,41.90
2018-07-06T12:26:38.334Z,43.30
2018-07-06T12:28:09.413Z,41.60
2018-07-06T12:29:41.597Z,41.50
2018-07-06T12:31:12.572Z,44.30
2018-07-06T12:34:15.829Z,44.50
2018-07-06T12:35:47.312Z,42.70
2018-07-06T12:37:20.031Z,43.30
2018-07-06T12:38:50.492Z,43.10
2018-07-06T12:40:22.059Z,41.80
2018-07-06T12:41:53.634Z,41.70
2018-07-06T12:43:25.212Z,45.90
2018-07-06T12:44:56.791Z,44.40
2018-07-06T12:46:28.473Z,46.20
2018-07-06T12:47:59.953Z,48.30
2018-07-06T12:49:32.141Z,47.40
2018-07-06T12:51:03.422Z,46.20
2018-07-06T12:52:34.797Z,47.20
2018-07-06T12:58:41.103Z,47.50
2018-07-06T13:00:12.806Z,47.40
2018-07-06T13:01:44.182Z,50.00
2018-07-06T13:04:47.345Z,48.00
2018-07-06T13:07:50.507Z,48.40
2018-07-06T13:09:22.088Z,49.40
2018-07-06T13:10:54.574Z,47.00
2018-07-06T13:12:25.250Z,48.40
2018-07-06T13:13:57.033Z,49.10
2018-07-06T13:15:28.412Z,47.00
2018-07-06T13:17:00.094Z,45.80
2018-07-06T13:18:31.576Z,42.40
2018-07-06T13:20:03.688Z,41.90
2018-07-06T13:21:34.738Z,43.90
2018-07-06T13:23:06.324Z,43.40
2018-07-06T13:24:38.204Z,43.40
2018-07-06T13:27:41.369Z,46.40
2018-07-06T13:29:12.745Z,43.50
2018-07-06T13:30:44.232Z,43.80
2018-07-06T13:33:47.442Z,42.00
2018-07-06T13:35:19.508Z,42.40
2018-07-06T13:36:50.559Z,41.60
2018-07-06T13:38:22.250Z,41.40
2018-07-06T13:41:25.311Z,41.70
2018-07-06T13:42:56.893Z,39.00
2018-07-06T13:44:28.778Z,39.10
2018-07-06T13:46:00.058Z,37.40
2018-07-06T13:47:31.892Z,35.70
2018-07-06T13:49:03.228Z,38.60
2018-07-06T13:50:34.822Z,33.30
2018-07-06T13:52:06.392Z,32.40
2018-07-06T13:53:37.975Z,34.00
2018-07-06T13:55:09.862Z,38.30
2018-07-06T13:56:41.141Z,34.30
2018-07-06T13:59:44.408Z,34.00
2018-07-06T14:01:15.895Z,32.00
2018-07-06T14:04:19.056Z,30.90
2018-07-06T14:07:22.576Z,25.70
2018-07-06T14:11:56.979Z,26.40
2018-07-06T14:13:29.112Z,27.40
2018-07-06T14:16:32.258Z,31.30
2018-07-06T14:18:03.308Z,29.60
2018-07-06T14:19:35.078Z,30.00
2018-07-06T14:21:06.476Z,29.30
2018-07-06T14:22:38.296Z,30.40
2018-07-06T14:24:09.643Z,32.20
2018-07-06T14:25:41.663Z,31.40
2018-07-06T14:27:12.839Z,30.40
2018-07-06T14:28:44.397Z,30.40
2018-07-06T14:30:15.979Z,31.70
2018-07-06T14:31:47.814Z,32.80
2018-07-06T14:33:19.231Z,32.70
2018-07-06T14:34:50.743Z,32.80
2018-07-06T14:36:22.320Z,30.80
2018-07-06T14:37:54.007Z,33.10
2018-07-06T14:39:25.704Z,33.10
2018-07-06T14:40:57.398Z,34.90
2018-07-06T14:45:32.376Z,36.20
2018-07-06T14:48:35.199Z,37.60
2018-07-06T14:50:06.884Z,35.30
2018-07-06T14:51:38.164Z,35.60
2018-07-06T14:53:09.748Z,34.80
2018-07-06T14:54:41.342Z,33.30
2018-07-06T14:56:12.919Z,33.90
2018-07-06T14:57:44.754Z,34.20
2018-07-06T14:59:16.108Z,35.00
2018-07-06T15:00:47.674Z,33.10
2018-07-06T15:02:19.261Z,34.90
2018-07-06T15:03:50.945Z,34.30
2018-07-06T15:05:22.479Z,33.70
2018-07-06T15:06:54.250Z,34.10
2018-07-06T15:08:25.601Z,32.80
2018-07-06T15:09:57.289Z,22.10
2018-07-06T15:11:28.840Z,20.40
2018-07-06T15:13:00.369Z,22.00
2018-07-06T15:14:31.942Z,21.00
2018-07-06T15:17:35.212Z,27.70
2018-07-06T15:19:06.696Z,25.50
2018-07-06T15:20:38.285Z,23.60
2018-07-06T15:22:09.866Z,21.80
2018-07-06T15:26:44.823Z,17.20
2018-07-06T15:29:47.793Z,16.10
2018-07-06T15:31:19.930Z,14.60
2018-07-06T15:32:52.881Z,14.60
2018-07-06T15:34:22.551Z,13.70
2018-07-06T15:35:54.133Z,14.60
2018-07-06T15:37:25.718Z,13.10
2018-07-06T15:38:57.404Z,13.40
2018-07-06T15:40:28.888Z,14.20
2018-07-06T15:42:00.474Z,12.70
2018-07-06T15:43:32.062Z,13.10
2018-07-06T15:45:03.946Z,13.00
2018-07-06T15:46:35.230Z,11.80
2018-07-06T15:48:06.820Z,10.40
2018-07-06T15:49:38.462Z,10.70
2018-07-06T15:51:10.106Z,10.80
2018-07-06T15:52:41.574Z,8.90
2018-07-06T15:54:13.390Z,9.40
2018-07-06T15:55:44.741Z,10.20
2018-07-06T15:58:48.012Z,9.90
2018-07-06T16:00:19.497Z,9.70
2018-07-06T16:01:51.407Z,10.10
2018-07-06T16:03:22.769Z,10.90
2018-07-06T16:04:54.452Z,10.20
2018-07-06T16:06:25.831Z,8.90
2018-07-06T16:09:29.000Z,8.10
2018-07-06T16:12:32.366Z,8.90
2018-07-06T16:17:06.978Z,9.60
2018-07-06T16:18:38.568Z,9.40
2018-07-06T16:20:10.085Z,10.10
2018-07-06T16:21:42.191Z,9.10
2018-07-06T16:23:14.669Z,9.10
2018-07-06T16:24:45.950Z,9.30
2018-07-06T16:26:16.425Z,9.70
2018-07-06T16:29:19.591Z,9.00
2018-07-06T16:30:51.178Z,8.60
2018-07-06T16:32:22.760Z,9.50
2018-07-06T16:33:54.344Z,9.30
2018-07-06T16:35:25.930Z,9.10
2018-07-06T16:36:57.717Z,9.10
2018-07-06T16:38:29.405Z,8.90
2018-07-06T16:40:00.685Z,8.00
2018-07-06T16:41:32.303Z,8.10
2018-07-06T16:43:03.954Z,8.60
2018-07-06T16:46:07.024Z,7.50
2018-07-06T16:47:38.914Z,7.00
2018-07-06T16:49:10.372Z,6.00
2018-07-06T16:50:41.777Z,5.50
2018-07-06T16:52:13.400Z,5.90
2018-07-06T16:53:44.948Z,5.70
2018-07-06T16:55:17.411Z,5.60
2018-07-06T16:56:48.114Z,5.40
2018-07-06T16:58:19.905Z,5.00
2018-07-06T16:59:51.281Z,5.30
2018-07-06T17:01:23.116Z,5.20
2018-07-06T17:02:54.448Z,6.20
2018-07-06T17:04:26.065Z,6.60
2018-07-06T17:09:00.788Z,6.80
2018-07-06T17:10:32.369Z,7.20
2018-07-06T17:12:03.958Z,7.10
2018-07-06T17:13:35.568Z,6.90
2018-07-06T17:15:07.281Z,7.20
2018-07-06T17:18:10.803Z,7.50
2018-07-06T17:21:13.715Z,7.10
2018-07-06T17:22:45.199Z,7.40
2018-07-06T17:24:16.663Z,7.30
2018-07-06T17:25:48.216Z,7.40
2018-07-06T17:31:54.555Z,7.20
2018-07-06T17:34:57.922Z,6.80
2018-07-06T17:36:29.838Z,6.60
2018-07-06T17:38:00.963Z,6.90
2018-07-06T17:39:32.503Z,6.70
2018-07-06T17:41:04.157Z,7.00
2018-07-06T17:42:35.673Z,6.80
2018-07-06T17:44:07.223Z,7.40
2018-07-06T17:45:38.836Z,7.00
2018-07-06T17:47:10.902Z,7.10
2018-07-06T17:48:41.973Z,8.00
2018-07-06T17:50:13.690Z,7.30
2018-07-06T17:51:45.141Z,7.20
2018-07-06T17:54:48.309Z,7.70
2018-07-06T17:56:19.918Z,7.50
2018-07-06T17:59:23.465Z,7.30
2018-07-06T18:00:55.275Z,7.30
2018-07-06T18:02:26.466Z,7.50
2018-07-06T18:03:57.813Z,7.80
2018-07-06T18:05:29.600Z,8.00
2018-07-06T18:07:00.983Z,7.30
2018-07-06T18:08:32.566Z,8.00
2018-07-06T18:10:04.150Z,8.70
2018-07-06T18:11:35.962Z,7.50
2018-07-06T18:13:07.328Z,7.30
2018-07-06T18:14:38.904Z,7.80
2018-07-06T18:19:13.807Z,8.20
2018-07-06T18:20:45.241Z,8.30
2018-07-06T18:23:48.410Z,8.20
2018-07-06T18:25:19.994Z,7.90
2018-07-06T18:26:51.584Z,8.30
2018-07-06T18:28:23.195Z,8.10
2018-07-06T18:29:54.746Z,7.80
2018-07-06T18:31:26.330Z,8.00
2018-07-06T18:32:57.919Z,7.80
2018-07-06T18:36:01.084Z,7.80
2018-07-06T18:37:32.795Z,8.20
2018-07-06T18:39:04.279Z,8.40
2018-07-06T18:40:36.038Z,8.10
2018-07-06T18:43:39.000Z,8.00
2018-07-06T18:45:10.585Z,8.40
2018-07-06T18:46:42.243Z,9.50
2018-07-06T18:49:45.335Z,9.10
2018-07-06T18:51:16.917Z,9.10
2018-07-06T18:54:20.286Z,8.90
2018-07-06T18:55:51.766Z,9.70
2018-07-06T18:57:23.250Z,9.60
2018-07-06T18:58:54.831Z,9.10
2018-07-06T19:00:26.440Z,9.40
2018-07-06T19:01:57.997Z,9.50
2018-07-06T19:05:01.163Z,9.10
2018-07-06T19:06:32.745Z,9.00
2018-07-06T19:08:04.327Z,9.60
2018-07-06T19:09:36.213Z,9.30
2018-07-06T19:11:08.025Z,9.70
2018-07-06T19:12:39.109Z,10.20
2018-07-06T19:14:10.758Z,9.60
2018-07-06T19:15:42.239Z,10.20
2018-07-06T19:17:13.820Z,9.60
2018-07-06T19:18:45.406Z,10.50
2018-07-06T19:20:16.985Z,10.90
2018-07-06T19:21:48.566Z,10.60
2018-07-06T19:23:20.148Z,11.40
2018-07-06T19:24:51.729Z,10.70
2018-07-06T19:26:23.613Z,10.90
2018-07-06T19:27:54.893Z,10.40
2018-07-06T19:29:26.474Z,11.00
2018-07-06T19:30:58.118Z,10.80
2018-07-06T19:32:29.941Z,10.70
2018-07-06T19:34:01.222Z,10.90
2018-07-06T19:35:32.800Z,10.70
2018-07-06T19:37:04.380Z,10.40
2018-07-06T19:38:35.963Z,10.70
2018-07-06T19:40:07.549Z,11.20
2018-07-06T19:41:39.122Z,11.20
2018-07-06T19:43:10.702Z,11.30
2018-07-06T19:44:42.283Z,10.60
2018-07-06T19:46:13.865Z,10.70
2018-07-06T19:47:45.445Z,11.80
2018-07-06T19:49:17.025Z,10.90
2018-07-06T19:50:49.407Z,10.60
2018-07-06T19:52:20.187Z,11.40
2018-07-06T19:53:51.769Z,11.40
2018-07-06T19:55:26.000Z,11.00
2018-07-06T19:56:54.932Z,10.80
2018-07-06T19:58:26.597Z,10.70
2018-07-06T19:59:58.085Z,11.30
2018-07-06T20:01:29.674Z,10.70
2018-07-06T20:03:01.551Z,10.80
2018-07-06T20:04:32.825Z,11.00
2018-07-06T20:06:04.408Z,11.20
2018-07-06T20:07:35.983Z,10.90
2018-07-06T20:09:07.665Z,11.20
2018-07-06T20:10:39.139Z,12.00
2018-07-06T20:12:10.726Z,10.40
2018-07-06T20:13:42.297Z,10.80
2018-07-06T20:15:13.875Z,11.50
2018-07-06T20:18:17.086Z,10.30
2018-07-06T20:19:48.619Z,9.90
2018-07-06T20:21:20.289Z,10.30
2018-07-06T20:22:51.766Z,10.70
2018-07-06T20:24:23.548Z,10.90
2018-07-06T20:25:54.923Z,11.40
2018-07-06T20:27:26.600Z,10.40
2018-07-06T20:28:58.093Z,10.60
2018-07-06T20:30:29.661Z,10.80
2018-07-06T20:32:01.233Z,11.00
2018-07-06T20:33:32.810Z,11.50
2018-07-06T20:35:04.387Z,11.10
2018-07-06T20:36:36.039Z,10.40
2018-07-06T20:38:07.541Z,10.40
2018-07-06T20:39:39.119Z,11.10
2018-07-06T20:41:10.696Z,13.40
2018-07-06T20:42:42.279Z,12.30
2018-07-06T20:44:13.849Z,11.60
2018-07-06T20:45:45.525Z,11.10
2018-07-06T20:47:17.001Z,10.40
2018-07-06T20:48:48.578Z,11.90
2018-07-06T20:50:20.155Z,10.50
2018-07-06T20:51:51.830Z,11.50
2018-07-06T20:53:23.306Z,11.20
2018-07-06T20:54:54.882Z,11.20
2018-07-06T20:56:26.458Z,12.20
2018-07-06T20:57:58.034Z,11.90
2018-07-06T20:59:29.609Z,13.80
2018-07-06T21:01:01.185Z,12.30